createdAt,value
2022-12-18T00:02:03.257Z,100552.83
2022-12-18T00:04:34.204Z,100554.70
2022-12-18T00:07:05.019Z,100555.25
2022-12-18T00:09:39.500Z,100555.98
2022-12-18T00:14:49.263Z,100566.48
2022-12-18T00:17:19.902Z,100573.83
2022-12-18T00:19:50.528Z,100579.66
2022-12-18T00:22:21.170Z,100580.63
2022-12-18T00:24:51.908Z,100584.63
2022-12-18T00:27:22.649Z,100584.30
2022-12-18T00:29:53.383Z,100594.56
2022-12-18T00:32:24.005Z,100601.73
2022-12-18T00:34:54.654Z,100599.88
2022-12-18T00:37:25.292Z,100601.80
2022-12-18T00:39:56.028Z,100607.63
2022-12-18T00:42:44.537Z,100613.49
2022-12-18T00:45:15.342Z,100612.25
2022-12-18T00:47:45.948Z,100613.66
2022-12-18T00:50:16.757Z,100613.66
2022-12-18T00:52:47.369Z,100613.95
2022-12-18T00:55:19.163Z,100614.02
2022-12-18T00:57:49.767Z,100612.21
2022-12-18T01:00:20.956Z,100620.12
2022-12-18T01:02:51.737Z,100624.07
2022-12-18T01:05:22.849Z,100630.55
2022-12-18T01:07:53.792Z,100635.11
2022-12-18T01:10:24.541Z,100627.60
2022-12-18T01:12:55.472Z,100629.85
2022-12-18T01:15:26.420Z,100626.47
2022-12-18T01:17:57.358Z,100626.37
2022-12-18T01:20:27.954Z,100636.23
2022-12-18T01:22:58.693Z,100642.09
2022-12-18T01:25:29.376Z,100640.73
2022-12-18T01:28:00.142Z,100639.59
2022-12-18T01:30:30.841Z,100639.20
2022-12-18T01:33:01.565Z,100637.73
2022-12-18T01:35:32.213Z,100641.40
2022-12-18T01:38:02.728Z,100650.24
2022-12-18T01:40:33.383Z,100653.63
2022-12-18T01:43:04.483Z,100659.09
2022-12-18T01:45:35.929Z,100659.09
2022-12-18T01:48:10.975Z,100661.68
2022-12-18T01:50:44.010Z,100665.80
2022-12-18T01:53:19.025Z,100663.66
2022-12-18T01:55:53.662Z,100669.14
2022-12-18T01:58:32.472Z,100676.27
2022-12-18T02:01:03.296Z,100674.27
2022-12-18T02:03:35.264Z,100668.48
2022-12-18T02:06:14.408Z,100673.09
2022-12-18T02:08:53.424Z,100673.98
2022-12-18T02:11:35.096Z,100676.35
2022-12-18T02:14:18.944Z,100683.91
2022-12-18T02:17:00.813Z,100677.66
2022-12-18T02:19:50.471Z,100680.34
2022-12-18T02:22:34.568Z,100679.83
2022-12-18T02:25:19.814Z,100677.08
2022-12-18T02:27:53.355Z,100681.08
2022-12-18T02:30:24.897Z,100689.02
2022-12-18T02:32:58.204Z,100692.30
2022-12-18T02:35:32.113Z,100697.54
2022-12-18T02:38:03.963Z,100695.17
2022-12-18T02:40:38.102Z,100700.98
2022-12-18T02:43:14.007Z,100705.84
2022-12-18T02:45:56.132Z,100700.36
2022-12-18T02:48:30.665Z,100699.13
2022-12-18T02:51:17.279Z,100696.88
2022-12-18T02:53:53.944Z,100705.50
2022-12-18T02:56:30.718Z,100707.92
2022-12-18T02:59:04.834Z,100709.61
2022-12-18T03:01:44.245Z,100709.45
2022-12-18T03:04:22.386Z,100711.48
2022-12-18T03:06:57.034Z,100714.92
2022-12-18T03:09:33.973Z,100716.06
2022-12-18T03:12:26.816Z,100713.21
2022-12-18T03:15:04.155Z,100719.27
2022-12-18T03:17:36.075Z,100723.95
2022-12-18T03:20:11.910Z,100720.50
2022-12-18T03:22:44.793Z,100721.52
2022-12-18T03:25:18.815Z,100726.14
2022-12-18T03:27:52.244Z,100732.98
2022-12-18T03:30:21.719Z,100740.35
2022-12-18T03:33:00.559Z,100742.25
2022-12-18T03:35:35.669Z,100745.57
2022-12-18T03:38:06.583Z,100747.04
2022-12-18T03:40:47.191Z,100753.74
2022-12-18T03:43:28.735Z,100753.01
2022-12-18T03:46:05.428Z,100753.59
2022-12-18T03:48:41.557Z,100747.48
2022-12-18T03:51:17.275Z,100748.60
2022-12-18T03:53:54.109Z,100750.73
2022-12-18T03:56:27.595Z,100752.75
2022-12-18T03:59:00.713Z,100750.59
2022-12-18T04:01:37.508Z,100754.09
2022-12-18T04:04:10.637Z,100753.38
2022-12-18T04:06:42.829Z,100749.86
2022-12-18T04:09:13.990Z,100752.27
2022-12-18T04:11:45.511Z,100764.39
2022-12-18T04:14:18.339Z,100768.73
2022-12-18T04:16:49.517Z,100764.55
2022-12-18T04:19:20.255Z,100762.08
2022-12-18T04:21:50.895Z,100765.50
2022-12-18T04:24:21.629Z,100770.29
2022-12-18T04:26:52.269Z,100777.48
2022-12-18T04:29:23.207Z,100782.05
2022-12-18T04:31:54.021Z,100780.93
2022-12-18T04:34:24.989Z,100781.99
2022-12-18T04:36:55.812Z,100782.56
2022-12-18T04:39:26.676Z,100784.11
2022-12-18T04:41:57.390Z,100782.86
2022-12-18T04:44:28.146Z,100783.54
2022-12-18T04:46:58.780Z,100792.04
2022-12-18T04:49:29.400Z,100799.14
2022-12-18T04:51:59.957Z,100799.25
2022-12-18T04:54:30.876Z,100806.96
2022-12-18T04:57:01.461Z,100807.45
2022-12-18T04:59:32.646Z,100809.26
2022-12-18T05:02:03.524Z,100807.17
2022-12-18T05:04:34.253Z,100815.67
2022-12-18T05:07:04.888Z,100814.70
2022-12-18T05:09:35.540Z,100813.52
2022-12-18T05:12:07.043Z,100811.21
2022-12-18T05:14:37.713Z,100816.00
2022-12-18T05:17:08.349Z,100815.93
2022-12-18T05:19:39.016Z,100818.93
2022-12-18T05:22:11.049Z,100821.74
2022-12-18T05:24:41.716Z,100824.10
2022-12-18T05:27:12.539Z,100827.09
2022-12-18T05:29:43.047Z,100828.20
2022-12-18T05:32:13.696Z,100831.86
2022-12-18T05:34:44.336Z,100832.41
2022-12-18T05:37:14.909Z,100838.02
2022-12-18T05:39:46.171Z,100842.23
2022-12-18T05:42:16.851Z,100841.87
2022-12-18T05:44:48.514Z,100841.91
2022-12-18T05:47:19.322Z,100844.67
2022-12-18T05:49:49.878Z,100845.96
2022-12-18T05:52:20.518Z,100844.13
2022-12-18T05:54:51.135Z,100851.45
2022-12-18T05:57:21.792Z,100857.21
2022-12-18T05:59:52.734Z,100861.15
2022-12-18T06:02:23.860Z,100867.44
2022-12-18T06:04:54.621Z,100874.46
2022-12-18T06:07:25.280Z,100870.73
2022-12-18T06:09:56.296Z,100878.44
2022-12-18T06:12:27.241Z,100884.10
2022-12-18T06:14:57.886Z,100882.13
2022-12-18T06:17:31.601Z,100892.60
2022-12-18T06:20:02.489Z,100888.83
2022-12-18T06:22:34.653Z,100890.20
2022-12-18T06:25:07.001Z,100901.41
2022-12-18T06:27:38.587Z,100897.02
2022-12-18T06:30:11.568Z,100900.06
2022-12-18T06:32:42.784Z,100903.20
2022-12-18T06:35:13.894Z,100905.96
2022-12-18T06:37:44.646Z,100911.92
2022-12-18T06:40:15.487Z,100908.14
2022-12-18T06:42:46.222Z,100906.36
2022-12-18T06:45:19.623Z,100907.98
2022-12-18T06:47:50.383Z,100907.23
2022-12-18T06:50:21.360Z,100908.30
2022-12-18T06:52:52.144Z,100912.07
2022-12-18T06:55:23.532Z,100914.64
2022-12-18T06:57:54.313Z,100922.43
2022-12-18T07:00:25.323Z,100922.86
2022-12-18T07:02:56.045Z,100932.42
2022-12-18T07:05:26.791Z,100939.16
2022-12-18T07:07:57.597Z,100942.48
2022-12-18T07:10:28.347Z,100933.40
2022-12-18T07:12:59.074Z,100935.39
2022-12-18T07:15:29.859Z,100935.90
2022-12-18T07:18:00.794Z,100936.48
2022-12-18T07:20:31.689Z,100934.63
2022-12-18T07:23:03.780Z,100924.55
2022-12-18T07:25:37.582Z,100932.77
2022-12-18T07:28:12.795Z,100936.65
2022-12-18T07:30:46.480Z,100941.27
2022-12-18T07:33:19.234Z,100948.36
2022-12-18T07:35:50.136Z,100953.92
2022-12-18T07:38:20.880Z,100955.77
2022-12-18T07:40:51.609Z,100959.15
2022-12-18T07:43:22.307Z,100957.04
2022-12-18T07:45:54.338Z,100952.84
2022-12-18T07:48:25.212Z,100954.20
2022-12-18T07:50:56.197Z,100963.48
2022-12-18T07:53:27.403Z,100966.42
2022-12-18T07:56:25.961Z,100967.34
2022-12-18T07:58:52.265Z,100970.64
2022-12-18T08:01:23.389Z,100970.09
2022-12-18T08:03:54.454Z,100976.35
2022-12-18T08:06:25.812Z,100976.86
2022-12-18T08:08:58.361Z,100979.08
2022-12-18T08:11:30.349Z,100979.98
2022-12-18T08:14:01.500Z,100986.73
2022-12-18T08:16:32.476Z,100993.30
2022-12-18T08:19:03.274Z,100995.90
2022-12-18T08:21:34.605Z,100998.81
2022-12-18T08:24:06.151Z,100998.54
2022-12-18T08:26:36.828Z,100993.77
2022-12-18T08:29:07.765Z,101000.28
2022-12-18T08:31:38.538Z,100998.92
2022-12-18T08:34:10.051Z,100999.40
2022-12-18T08:36:40.835Z,100997.23
2022-12-18T08:39:11.631Z,100995.70
2022-12-18T08:41:42.370Z,100994.48
2022-12-18T08:44:30.665Z,101000.41
2022-12-18T08:47:01.444Z,101005.33
2022-12-18T08:49:32.433Z,101013.59
2022-12-18T08:52:03.833Z,101014.92
2022-12-18T08:54:34.694Z,101013.09
2022-12-18T08:57:05.551Z,101009.26
2022-12-18T08:59:36.448Z,101013.55
2022-12-18T09:02:07.584Z,101008.06
2022-12-18T09:04:38.476Z,101014.86
2022-12-18T09:07:10.148Z,101011.93
2022-12-18T09:09:41.114Z,101011.08
2022-12-18T09:12:11.791Z,101007.89
2022-12-18T09:14:42.645Z,101011.79
2022-12-18T09:17:13.408Z,101007.27
2022-12-18T09:19:44.529Z,101002.42
2022-12-18T09:22:15.364Z,101002.20
2022-12-18T09:24:46.048Z,101010.20
2022-12-18T09:27:16.834Z,101005.23
2022-12-18T09:29:47.881Z,100996.17
2022-12-18T09:32:22.321Z,100991.21
2022-12-18T09:34:53.591Z,100998.10
2022-12-18T09:37:24.293Z,100996.36
2022-12-18T09:39:54.971Z,100988.26
2022-12-18T09:42:26.356Z,100995.58
2022-12-18T09:44:57.958Z,100989.33
2022-12-18T09:47:31.888Z,100989.17
2022-12-18T09:50:06.167Z,100985.36
2022-12-18T09:52:39.612Z,100988.48
2022-12-18T09:55:21.617Z,100987.75
2022-12-18T09:57:58.032Z,100993.41
2022-12-18T10:00:28.980Z,100993.10
2022-12-18T10:03:05.203Z,100994.79
2022-12-18T10:05:44.279Z,100996.23
2022-12-18T10:08:20.626Z,100993.36
2022-12-18T10:10:54.303Z,100985.83
2022-12-18T10:13:33.972Z,100986.84
2022-12-18T10:16:16.396Z,100994.52
2022-12-18T10:19:04.352Z,100993.52
2022-12-18T10:21:41.801Z,100995.45
2022-12-18T10:24:23.690Z,100995.70
2022-12-18T10:26:58.358Z,100997.43
2022-12-18T10:29:30.292Z,100999.88
2022-12-18T10:32:01.124Z,101004.30
2022-12-18T10:34:32.154Z,101008.34
2022-12-18T10:37:08.598Z,101010.45
2022-12-18T10:39:39.378Z,101011.75
2022-12-18T10:42:19.536Z,101016.33
2022-12-18T10:45:05.953Z,101025.48
2022-12-18T10:47:37.899Z,101024.38
2022-12-18T10:50:40.730Z,101022.64
2022-12-18T10:53:21.619Z,101016.19
2022-12-18T10:55:54.141Z,101022.16
2022-12-18T10:58:33.662Z,101024.20
2022-12-18T11:01:13.961Z,101020.67
2022-12-18T11:03:47.320Z,101019.71
2022-12-18T11:06:19.832Z,101017.96
2022-12-18T11:09:06.584Z,101013.73
2022-12-18T11:11:43.515Z,101011.59
2022-12-18T11:14:20.410Z,101006.17
2022-12-18T11:19:44.838Z,101005.10
2022-12-18T11:22:27.503Z,101008.09
2022-12-18T11:27:54.861Z,100999.73
2022-12-18T11:30:28.345Z,100996.81
2022-12-18T11:33:03.966Z,100994.38
2022-12-18T11:35:51.646Z,100991.27
2022-12-18T11:38:28.264Z,100988.23
2022-12-18T11:41:04.141Z,100981.84
2022-12-18T11:43:37.840Z,100985.81
2022-12-18T11:46:19.357Z,100984.45
2022-12-18T11:48:56.538Z,100985.46
2022-12-18T11:51:34.476Z,100984.39
2022-12-18T11:54:14.769Z,100980.41
2022-12-18T11:56:50.169Z,100972.38
2022-12-18T11:59:30.025Z,100970.97
2022-12-18T12:02:17.218Z,100965.96
2022-12-18T12:05:03.648Z,100958.16
2022-12-18T12:07:45.827Z,100952.67
2022-12-18T12:10:33.215Z,100960.35
2022-12-18T12:13:18.325Z,100952.20
2022-12-18T12:16:01.403Z,100953.69
2022-12-18T12:18:39.207Z,100953.79
2022-12-18T12:21:15.817Z,100953.55
2022-12-18T12:23:55.059Z,100959.27
2022-12-18T12:26:32.137Z,100957.67
2022-12-18T12:29:23.378Z,100955.62
2022-12-18T12:32:14.952Z,100959.92
2022-12-18T12:35:00.973Z,100955.45
2022-12-18T12:37:43.263Z,100954.62
2022-12-18T12:40:48.300Z,100951.85
2022-12-18T12:43:21.656Z,100949.36
2022-12-18T12:45:56.946Z,100947.55
2022-12-18T12:48:37.829Z,100947.83
2022-12-18T12:51:14.800Z,100951.73
2022-12-18T12:53:47.206Z,100950.88
2022-12-18T12:56:20.086Z,100954.21
2022-12-18T12:59:00.515Z,100949.86
2022-12-18T13:01:43.369Z,100955.06
2022-12-18T13:04:25.012Z,100948.16
2022-12-18T13:07:03.460Z,100942.80
2022-12-18T13:09:36.695Z,100941.33
2022-12-18T13:12:33.330Z,100944.55
2022-12-18T13:15:25.103Z,100948.73
2022-12-18T13:18:19.013Z,100960.88
2022-12-18T13:20:55.252Z,100977.27
2022-12-18T13:23:38.750Z,100984.55
2022-12-18T13:26:33.132Z,100990.14
2022-12-18T13:29:05.706Z,100991.80
2022-12-18T13:31:53.161Z,100990.96
2022-12-18T13:34:27.564Z,100994.95
2022-12-18T13:37:22.656Z,100999.48
2022-12-18T13:39:53.734Z,101001.52
2022-12-18T13:43:00.389Z,100994.45
2022-12-18T13:45:43.764Z,100997.19
2022-12-18T13:48:22.066Z,101001.70
2022-12-18T13:51:03.096Z,101001.69
2022-12-18T13:53:40.693Z,101001.87
2022-12-18T13:56:17.253Z,101003.29
2022-12-18T13:58:48.102Z,101004.63
2022-12-18T14:01:27.724Z,101004.29
2022-12-18T14:04:10.631Z,101009.54
2022-12-18T14:06:44.693Z,101014.95
2022-12-18T14:09:21.360Z,101019.87
2022-12-18T14:12:14.575Z,101023.20
2022-12-18T14:14:49.269Z,101029.18
2022-12-18T14:17:22.819Z,101034.77
2022-12-18T14:19:55.193Z,101035.67
2022-12-18T14:22:31.020Z,101041.60
2022-12-18T14:25:20.052Z,101040.13
2022-12-18T14:27:53.565Z,101041.92
2022-12-18T14:30:35.392Z,101040.95
2022-12-18T14:33:11.254Z,101038.18
2022-12-18T14:35:44.035Z,101033.90
2022-12-18T14:38:25.975Z,101030.68
2022-12-18T14:41:04.557Z,101029.33
2022-12-18T14:43:37.368Z,101028.88
2022-12-18T14:46:27.967Z,101024.93
2022-12-18T14:48:59.796Z,101024.08
2022-12-18T14:51:33.690Z,101018.05
2022-12-18T14:54:09.004Z,101009.79
2022-12-18T14:56:48.472Z,101005.72
2022-12-18T14:59:24.673Z,101000.29
2022-12-18T15:02:03.579Z,101002.20
2022-12-18T15:04:40.445Z,101007.33
2022-12-18T15:07:17.446Z,101009.65
2022-12-18T15:10:05.542Z,101017.27
2022-12-18T15:12:39.989Z,101015.80
2022-12-18T15:15:41.728Z,101011.52
2022-12-18T15:18:17.911Z,101011.67
2022-12-18T15:20:50.760Z,101021.44
2022-12-18T15:23:26.225Z,101021.25
2022-12-18T15:26:01.639Z,101017.19
2022-12-18T15:28:37.565Z,101022.08
2022-12-18T15:31:25.794Z,101024.63
2022-12-18T15:34:21.395Z,101024.23
2022-12-18T15:36:53.992Z,101025.02
2022-12-18T15:39:24.775Z,101020.74
2022-12-18T15:42:12.996Z,101017.98
2022-12-18T15:44:45.578Z,101020.35
2022-12-18T15:47:16.930Z,101015.45
2022-12-18T15:49:47.887Z,101014.55
2022-12-18T15:52:27.175Z,101010.93
2022-12-18T15:55:16.218Z,101007.59
2022-12-18T15:57:48.036Z,100998.56
2022-12-18T16:00:20.484Z,100990.27
2022-12-18T16:02:51.483Z,100984.91
2022-12-18T16:05:26.905Z,100985.86
2022-12-18T16:07:57.594Z,100981.45
2022-12-18T16:10:29.335Z,100988.06
2022-12-18T16:13:00.346Z,100988.13
2022-12-18T16:15:31.132Z,100983.55
2022-12-18T16:18:02.230Z,100985.77
2022-12-18T16:20:32.969Z,100983.05
2022-12-18T16:23:03.837Z,100978.92
2022-12-18T16:25:35.249Z,100969.80
2022-12-18T16:28:06.717Z,100971.34
2022-12-18T16:30:38.473Z,100971.34
2022-12-18T16:33:10.350Z,100970.16
2022-12-18T16:35:41.274Z,100966.55
2022-12-18T16:38:13.352Z,100972.02
2022-12-18T16:40:57.907Z,100972.34
2022-12-18T16:43:28.619Z,100973.55
2022-12-18T16:46:00.494Z,100980.79
2022-12-18T16:48:31.332Z,100978.46
2022-12-18T16:51:06.728Z,100977.50
2022-12-18T16:53:37.645Z,100976.30
2022-12-18T16:56:09.766Z,100979.74
2022-12-18T16:58:40.534Z,100981.59
2022-12-18T17:01:13.918Z,100976.91
2022-12-18T17:03:45.148Z,100970.35
2022-12-18T17:06:18.070Z,100966.34
2022-12-18T17:08:50.000Z,100975.59
2022-12-18T17:11:21.549Z,100969.89
2022-12-18T17:13:52.480Z,100966.57
2022-12-18T17:16:23.935Z,100959.29
2022-12-18T17:18:55.459Z,100961.60
2022-12-18T17:21:26.396Z,100965.88
2022-12-18T17:23:57.437Z,100966.45
2022-12-18T17:26:28.276Z,100970.69
2022-12-18T17:29:02.306Z,100972.71
2022-12-18T17:31:34.140Z,100979.44
2022-12-18T17:34:06.629Z,100977.39
2022-12-18T17:36:37.887Z,100979.72
2022-12-18T17:39:09.951Z,100981.00
2022-12-18T17:41:40.688Z,100973.67
2022-12-18T17:44:12.052Z,100977.51
2022-12-18T17:46:43.709Z,100981.73
2022-12-18T17:49:14.679Z,100972.33
2022-12-18T17:51:45.551Z,100975.04
2022-12-18T17:54:16.219Z,100981.52
2022-12-18T17:56:47.388Z,100985.02
2022-12-18T17:59:18.824Z,100984.55
2022-12-18T18:01:49.931Z,100975.02
2022-12-18T18:04:21.080Z,100975.80
2022-12-18T18:06:51.958Z,100978.28
2022-12-18T18:09:22.643Z,100980.02
2022-12-18T18:12:13.896Z,100976.71
2022-12-18T18:14:45.966Z,100976.60
2022-12-18T18:17:17.525Z,100973.48
2022-12-18T18:19:49.818Z,100973.60
2022-12-18T18:22:20.924Z,100974.52
2022-12-18T18:24:53.996Z,100975.99
2022-12-18T18:27:24.811Z,100971.66
2022-12-18T18:29:55.718Z,100966.89
2022-12-18T18:32:26.516Z,100963.62
2022-12-18T18:34:58.126Z,100955.00
2022-12-18T18:37:29.473Z,100954.21
2022-12-18T18:40:00.201Z,100957.61
2022-12-18T18:42:31.254Z,100957.90
2022-12-18T18:45:01.987Z,100961.46
2022-12-18T18:47:33.586Z,100962.54
2022-12-18T18:50:04.585Z,100962.73
2022-12-18T18:52:35.630Z,100962.40
2022-12-18T18:55:13.647Z,100966.58
2022-12-18T18:57:51.335Z,100966.16
2022-12-18T19:00:22.306Z,100969.73
2022-12-18T19:02:59.061Z,100970.07
2022-12-18T19:05:34.077Z,100972.27
2022-12-18T19:08:05.103Z,100977.02
2022-12-18T19:10:36.073Z,100976.39
2022-12-18T19:13:26.893Z,100979.05
2022-12-18T19:16:04.541Z,100980.67
2022-12-18T19:18:38.005Z,100984.91
2022-12-18T19:21:07.905Z,100984.86
2022-12-18T19:23:39.227Z,100990.66
2022-12-18T19:26:28.850Z,100989.32
2022-12-18T19:29:05.527Z,100985.70
2022-12-18T19:31:37.460Z,100983.61
2022-12-18T19:34:09.658Z,100982.76
2022-12-18T19:36:42.239Z,100980.34
2022-12-18T19:39:15.490Z,100985.93
2022-12-18T19:41:47.080Z,100989.44
2022-12-18T19:44:19.440Z,100992.98
2022-12-18T19:46:52.833Z,100985.21
2022-12-18T19:49:23.730Z,100980.41
2022-12-18T19:51:55.226Z,100983.85
2022-12-18T19:54:26.906Z,100989.09
2022-12-18T19:56:57.931Z,100991.42
2022-12-18T19:59:28.871Z,100990.05
2022-12-18T20:01:59.917Z,100993.01
2022-12-18T20:04:32.266Z,100987.90
2022-12-18T20:07:03.332Z,100988.64
2022-12-18T20:09:47.445Z,100990.23
2022-12-18T20:12:19.450Z,100994.69
2022-12-18T20:14:50.554Z,100994.23
2022-12-18T20:17:21.598Z,100993.00
2022-12-18T20:19:53.424Z,100988.09
2022-12-18T20:22:25.162Z,100983.23
2022-12-18T20:24:56.359Z,100980.47
2022-12-18T20:27:27.560Z,100977.20
2022-12-18T20:29:58.634Z,100972.40
2022-12-18T20:32:35.388Z,100968.33
2022-12-18T20:35:09.171Z,100965.34
2022-12-18T20:37:43.827Z,100960.64
2022-12-18T20:40:19.745Z,100959.46
2022-12-18T20:42:50.621Z,100958.50
2022-12-18T20:45:23.388Z,100964.65
2022-12-18T20:47:56.141Z,100962.50
2022-12-18T20:50:26.886Z,100958.60
2022-12-18T20:52:57.856Z,100958.95
2022-12-18T20:55:28.729Z,100956.69
2022-12-18T20:57:59.714Z,100953.52
2022-12-18T21:00:30.614Z,100953.35
2022-12-18T21:03:01.623Z,100951.10
2022-12-18T21:05:33.894Z,100952.17
2022-12-18T21:08:10.165Z,100951.33
2022-12-18T21:10:43.573Z,100946.92
2022-12-18T21:13:15.225Z,100945.23
2022-12-18T21:15:48.104Z,100950.09
2022-12-18T21:18:19.046Z,100956.29
2022-12-18T21:20:50.425Z,100959.67
2022-12-18T21:23:21.513Z,100951.43
2022-12-18T21:25:55.854Z,100947.42
2022-12-18T21:28:27.014Z,100939.42
2022-12-18T21:30:58.022Z,100931.58
2022-12-18T21:33:28.902Z,100933.55
2022-12-18T21:35:59.735Z,100933.88
2022-12-18T21:38:31.765Z,100937.89
2022-12-18T21:41:06.367Z,100937.39
2022-12-18T21:43:57.261Z,100941.84
2022-12-18T21:46:28.048Z,100942.45
2022-12-18T21:48:58.803Z,100929.17
2022-12-18T21:51:29.706Z,100917.59
2022-12-18T21:54:01.312Z,100906.04
2022-12-18T21:59:31.864Z,100903.27
2022-12-18T22:02:05.330Z,100897.90
2022-12-18T22:04:36.147Z,100890.33
2022-12-18T22:07:07.519Z,100888.58
2022-12-18T22:09:38.241Z,100893.15
2022-12-18T22:12:10.138Z,100896.30
2022-12-18T22:14:40.988Z,100893.89
2022-12-18T22:17:11.752Z,100899.59
2022-12-18T22:19:43.734Z,100903.48
2022-12-18T22:22:14.518Z,100896.81
2022-12-18T22:24:45.259Z,100894.44
2022-12-18T22:27:15.972Z,100891.73
2022-12-18T22:30:04.335Z,100888.70
2022-12-18T22:32:36.306Z,100894.34
2022-12-18T22:35:15.431Z,100891.17
2022-12-18T22:37:46.788Z,100877.52
2022-12-18T22:40:25.497Z,100894.38
2022-12-18T22:42:57.478Z,100888.73
2022-12-18T22:45:29.211Z,100891.50
2022-12-18T22:47:59.945Z,100895.84
2022-12-18T22:50:30.600Z,100897.88
2022-12-18T22:53:01.237Z,100894.55
2022-12-18T22:55:32.195Z,100893.23
2022-12-18T22:58:03.018Z,100888.45
2022-12-18T23:00:33.790Z,100891.05
2022-12-18T23:03:05.045Z,100885.23
2022-12-18T23:05:37.934Z,100880.79
2022-12-18T23:08:09.347Z,100877.23
2022-12-18T23:10:41.625Z,100877.05
2022-12-18T23:13:12.280Z,100877.66
2022-12-18T23:15:45.452Z,100876.02
2022-12-18T23:18:16.068Z,100876.09
2022-12-18T23:20:46.932Z,100873.56
2022-12-18T23:23:19.401Z,100874.17
2022-12-18T23:25:50.144Z,100873.29
2022-12-18T23:28:20.879Z,100869.05
2022-12-18T23:30:51.659Z,100857.02
2022-12-18T23:33:22.419Z,100860.29
2022-12-18T23:35:53.400Z,100858.14
2022-12-18T23:38:24.038Z,100847.65
2022-12-18T23:40:54.909Z,100844.45
2022-12-18T23:43:28.168Z,100829.95
2022-12-18T23:45:58.807Z,100824.21
2022-12-18T23:48:29.525Z,100819.02
2022-12-18T23:51:05.400Z,100828.56
2022-12-18T23:53:36.649Z,100825.73
2022-12-18T23:56:09.196Z,100823.94
2022-12-18T23:58:40.725Z,100830.98
